Time;durP1;ratioP1;P1;durP2;ratioP2;P2;SDS_P1;SDS_P2;PMS_P1;PMS_P2;Temp;Humidity;BMP_temperature;BMP_pressure;BME280_temperature;BME280_humidity;BME280_pressure;Samples;Min_cycle;Max_cycle;Signal;HPM_P1;HPM_P2
2022/04/27 00:01:49;;;;;;;6.17;5.47;;;;;;;12.06;100.00;95441.09;5093572;28;20246;-65
2022/04/27 00:04:14;;;;;;;6.53;5.77;;;;;;;11.98;100.00;95439.66;5093173;28;20259;-64
2022/04/27 00:06:40;;;;;;;7.77;5.30;;;;;;;12.03;100.00;95439.97;5093247;28;20189;-63
2022/04/27 00:09:06;;;;;;;6.90;5.83;;;;;;;11.98;100.00;95450.59;5093038;28;20182;-64
2022/04/27 00:11:31;;;;;;;6.67;5.23;;;;;;;11.91;100.00;95454.19;5093399;28;20268;-66
2022/04/27 00:13:58;;;;;;;6.07;5.50;;;;;;;11.82;100.00;95434.75;5093773;28;20191;-64
2022/04/27 00:16:24;;;;;;;7.17;5.47;;;;;;;11.68;100.00;95439.59;5093521;28;20191;-58
2022/04/27 00:18:49;;;;;;;7.30;5.80;;;;;;;11.61;100.00;95440.47;5093182;28;20189;-57
2022/04/27 00:21:15;;;;;;;6.37;5.60;;;;;;;11.67;100.00;95438.84;5093373;28;20183;-61
2022/04/27 00:23:40;;;;;;;6.50;5.47;;;;;;;11.71;100.00;95434.13;5092964;28;20185;-61
2022/04/27 00:26:05;;;;;;;7.10;5.53;;;;;;;11.60;100.00;95432.66;5093101;28;20229;-61
2022/04/27 00:28:31;;;;;;;8.53;5.63;;;;;;;11.56;100.00;95431.91;5092959;28;20277;-61
2022/04/27 00:30:56;;;;;;;5.93;5.33;;;;;;;11.40;100.00;95427.00;5093026;28;20217;-61
2022/04/27 00:33:22;;;;;;;7.13;5.60;;;;;;;11.20;100.00;95419.81;5093002;28;20276;-61
2022/04/27 00:35:47;;;;;;;7.83;6.00;;;;;;;11.29;100.00;95428.31;5092969;28;20189;-62
2022/04/27 00:38:12;;;;;;;7.70;5.53;;;;;;;11.26;100.00;95429.13;5092853;28;20199;-51
2022/04/27 00:40:38;;;;;;;7.63;5.70;;;;;;;11.44;100.00;95429.72;5093100;28;20200;-53
2022/04/27 00:43:04;;;;;;;7.33;5.90;;;;;;;11.36;100.00;95429.00;5092936;28;20251;-53
2022/04/27 00:45:29;;;;;;;7.13;6.33;;;;;;;11.38;100.00;95428.59;5093158;28;20210;-55
2022/04/27 00:47:54;;;;;;;7.47;5.90;;;;;;;11.35;100.00;95435.66;5092656;28;20198;-55
2022/04/27 00:50:20;;;;;;;8.53;5.50;;;;;;;11.27;100.00;95430.66;5092662;28;20190;-55
2022/04/27 00:52:46;;;;;;;7.13;5.57;;;;;;;11.24;100.00;95434.22;5093881;28;20285;-56
2022/04/27 00:55:11;;;;;;;7.40;5.40;;;;;;;11.06;100.00;95430.88;5096667;28;20213;-54
2022/04/27 00:57:40;;;;;;;7.47;6.03;;;;;;;11.07;100.00;95437.91;5096437;28;20250;-54
2022/04/27 01:00:07;;;;;;;7.67;5.60;;;;;;;10.95;100.00;95436.44;5096326;28;20193;-55
2022/04/27 01:02:36;;;;;;;5.70;5.10;;;;;;;10.85;100.00;95442.00;5095817;28;20186;-53
2022/04/27 01:05:07;;;;;;;6.50;5.57;;;;;;;11.00;100.00;95446.16;5096091;28;20220;-53
2022/04/27 01:07:33;;;;;;;6.60;5.90;;;;;;;11.00;100.00;95440.72;5096612;28;20254;-55
2022/04/27 01:09:59;;;;;;;7.57;5.70;;;;;;;11.02;100.00;95449.25;5096554;28;20236;-55
2022/04/27 01:12:25;;;;;;;6.87;5.53;;;;;;;10.87;100.00;95450.56;5096771;28;20268;-55
2022/04/27 01:14:51;;;;;;;5.87;5.30;;;;;;;10.95;100.00;95446.59;5096067;28;20215;-61
2022/04/27 01:17:17;;;;;;;7.87;6.00;;;;;;;10.96;100.00;95442.69;5096116;28;20182;-61
2022/04/27 01:19:42;;;;;;;7.87;5.87;;;;;;;10.90;100.00;95449.75;5095934;28;20193;-61
2022/04/27 01:22:08;;;;;;;7.23;6.27;;;;;;;10.90;100.00;95450.56;5095601;28;20184;-61
2022/04/27 01:24:33;;;;;;;7.60;5.67;;;;;;;10.94;100.00;95450.50;5095441;28;20241;-61
2022/04/27 01:26:59;;;;;;;6.80;5.67;;;;;;;11.07;100.00;95448.84;5095659;28;20203;-61
2022/04/27 01:29:25;;;;;;;6.37;5.50;;;;;;;11.11;100.00;95444.13;5096154;28;20191;-61
2022/04/27 01:31:53;;;;;;;8.27;5.90;;;;;;;11.14;100.00;95448.78;5095695;28;20186;-59
2022/04/27 01:34:19;;;;;;;7.83;6.17;;;;;;;11.19;100.00;95445.59;5095717;28;20203;-61
2022/04/27 01:36:44;;;;;;;7.50;6.00;;;;;;;11.22;100.00;95444.78;5095889;28;20183;-61
2022/04/27 01:39:10;;;;;;;8.83;6.40;;;;;;;11.37;100.00;95440.72;5096377;28;20186;-62
2022/04/27 01:41:37;;;;;;;7.17;5.83;;;;;;;11.37;100.00;95452.41;5095624;28;20231;-61
2022/04/27 01:44:03;;;;;;;9.27;6.27;;;;;;;11.26;100.00;95448.25;5095534;28;20194;-61
2022/04/27 01:46:28;;;;;;;9.10;5.93;;;;;;;11.26;100.00;95456.47;5095380;28;20221;-61
2022/04/27 01:48:55;;;;;;;7.93;5.97;;;;;;;11.35;100.00;95448.53;5095538;28;20202;-59
2022/04/27 01:54:14;;;;;;;7.00;6.03;;;;;;;11.46;100.00;95454.69;5095495;28;20190;-55
2022/04/27 01:54:15;;;;;;;9.23;6.83;;;;;;;11.51;100.00;95457.00;5096401;28;20185;-55
2022/04/27 01:56:44;;;;;;;8.47;6.17;;;;;;;11.53;100.00;95457.34;5095811;28;20197;-55
2022/04/27 01:59:12;;;;;;;10.17;6.80;;;;;;;11.58;100.00;95456.91;5095105;28;20189;-55
2022/04/27 02:01:38;;;;;;;10.23;6.90;;;;;;;11.69;100.00;95461.09;5095698;28;20197;-55
2022/04/27 02:04:03;;;;;;;8.57;6.80;;;;;;;11.76;100.00;95463.75;5095099;28;20286;-53
2022/04/27 02:06:29;;;;;;;11.10;8.60;;;;;;;11.87;100.00;95469.13;5095558;28;20235;-63
2022/04/27 02:08:55;;;;;;;11.87;8.80;;;;;;;11.97;100.00;95462.72;5095270;28;20239;-59
2022/04/27 02:11:24;;;;;;;8.80;6.73;;;;;;;11.96;100.00;95461.16;5095584;28;20273;-61
2022/04/27 02:13:53;;;;;;;8.77;7.30;;;;;;;11.85;100.00;95461.31;5095109;28;20197;-62
2022/04/27 02:16:18;;;;;;;8.13;7.03;;;;;;;11.83;100.00;95462.88;5095307;28;20186;-61
2022/04/27 02:18:43;;;;;;;9.30;6.90;;;;;;;11.83;100.00;95462.88;5095554;28;20189;-61
2022/04/27 02:21:09;;;;;;;9.87;6.97;;;;;;;11.94;100.00;95458.06;5095251;28;20269;-61
2022/04/27 02:23:34;;;;;;;9.27;7.30;;;;;;;11.97;100.00;95457.25;5095185;28;20271;-61
2022/04/27 02:26:02;;;;;;;10.37;7.47;;;;;;;11.97;100.00;95462.72;5094702;28;20289;-56
2022/04/27 02:28:27;;;;;;;8.40;6.43;;;;;;;12.09;100.00;95467.66;5094950;28;20206;-58
2022/04/27 02:30:52;;;;;;;8.70;7.17;;;;;;;12.11;100.00;95470.75;5094896;28;20212;-59
2022/04/27 02:33:18;;;;;;;9.47;6.47;;;;;;;12.24;100.00;95460.81;5094759;28;20278;-59
2022/04/27 02:35:43;;;;;;;7.93;6.80;;;;;;;12.28;100.00;95467.00;5094845;28;20213;-58
2022/04/27 02:38:08;;;;;;;7.87;7.00;;;;;;;12.33;100.00;95463.81;5094708;28;20191;-58
2022/04/27 02:40:35;;;;;;;8.83;7.47;;;;;;;12.34;100.00;95465.34;5094678;28;20181;-59
2022/04/27 02:43:00;;;;;;;9.43;7.30;;;;;;;12.34;100.00;95476.28;5094566;28;20187;-58
2022/04/27 02:45:25;;;;;;;9.10;7.50;;;;;;;12.26;100.00;95474.84;5095076;28;20228;-55
2022/04/27 02:47:50;;;;;;;9.40;7.60;;;;;;;12.27;100.00;95481.88;5094587;28;20202;-59
2022/04/27 02:53:00;;;;;;;8.27;7.10;;;;;;;12.33;100.00;95486.50;5096146;28;20253;-59
2022/04/27 02:55:25;;;;;;;8.10;7.27;;;;;;;12.33;100.00;95482.97;5094366;28;20189;-58
2022/04/27 02:57:51;;;;;;;7.90;7.10;;;;;;;12.36;100.00;95484.88;5094617;28;20181;-60
2022/04/27 03:00:16;;;;;;;8.67;7.00;;;;;;;12.36;100.00;95484.88;5094423;28;20185;-59
2022/04/27 03:02:41;;;;;;;7.93;6.90;;;;;;;12.37;100.00;95492.69;5094421;28;20186;-62
2022/04/27 03:05:07;;;;;;;10.13;7.07;;;;;;;12.42;100.00;95489.50;5094176;28;20233;-64
2022/04/27 03:07:32;;;;;;;9.40;7.50;;;;;;;12.39;100.00;95495.03;5094293;28;20195;-64
2022/04/27 03:09:58;;;;;;;10.10;7.93;;;;;;;12.43;100.00;95499.25;5094571;28;20196;-65
2022/04/27 03:12:23;;;;;;;10.63;7.17;;;;;;;12.49;100.00;95505.03;5094216;28;20182;-63
2022/04/27 03:14:48;;;;;;;9.80;7.67;;;;;;;12.49;100.00;95499.56;5094144;28;20189;-64
2022/04/27 03:17:14;;;;;;;10.00;8.00;;;;;;;12.50;100.00;95501.88;5094268;28;20178;-64
2022/04/27 03:19:39;;;;;;;8.87;7.73;;;;;;;12.49;100.00;95507.78;5094012;28;20196;-64
2022/04/27 03:22:04;;;;;;;8.83;7.47;;;;;;;12.21;100.00;95505.44;5094230;28;20203;-55
2022/04/27 03:24:30;;;;;;;8.40;7.50;;;;;;;12.33;100.00;95507.63;5093808;28;20245;-59
2022/04/27 03:26:55;;;;;;;10.30;7.80;;;;;;;12.30;100.00;95505.69;5093989;28;20663;-59
2022/04/27 03:29:21;;;;;;;11.60;8.97;;;;;;;12.34;100.00;95504.47;5094427;28;20265;-58
2022/04/27 03:31:46;;;;;;;11.27;8.00;;;;;;;12.35;100.00;95502.50;5094313;28;20276;-59
2022/04/27 03:34:11;;;;;;;9.60;7.33;;;;;;;12.28;100.00;95506.09;5094229;28;20196;-59
2022/04/27 03:36:37;;;;;;;10.37;8.50;;;;;;;12.43;100.00;95506.72;5094306;28;20194;-59
2022/04/27 03:39:02;;;;;;;11.87;8.53;;;;;;;12.48;100.00;95508.97;5093919;28;20276;-65
2022/04/27 03:41:28;;;;;;;17.30;12.60;;;;;;;12.50;100.00;95507.38;5093923;28;20237;-56
2022/04/27 03:43:54;;;;;;;11.90;8.37;;;;;;;12.55;100.00;95508.88;5093623;28;20216;-55
2022/04/27 03:46:19;;;;;;;9.97;8.50;;;;;;;12.53;100.00;95512.03;5094309;28;20214;-56
2022/04/27 03:48:46;;;;;;;9.83;8.27;;;;;;;12.52;100.00;95515.19;5093827;28;20193;-54
2022/04/27 03:51:12;;;;;;;11.33;8.93;;;;;;;12.87;100.00;95511.94;5093552;28;20376;-58
2022/04/27 03:53:37;;;;;;;10.97;8.50;;;;;;;12.77;100.00;95521.09;5093545;28;20189;-56
2022/04/27 03:56:03;;;;;;;10.60;8.83;;;;;;;12.85;100.00;95517.03;5093579;28;20212;-56
2022/04/27 03:58:28;;;;;;;11.33;8.37;;;;;;;12.77;100.00;95523.81;5093361;28;20182;-59
2022/04/27 04:00:53;;;;;;;11.47;8.17;;;;;;;12.83;100.00;95524.94;5093652;28;20188;-61
2022/04/27 04:03:18;;;;;;;14.67;10.60;;;;;;;12.93;100.00;95532.97;5093714;28;20187;-61
2022/04/27 04:05:44;;;;;;;14.33;10.57;;;;;;;13.06;100.00;95533.22;5093291;28;20212;-60
2022/04/27 04:08:09;;;;;;;11.67;8.93;;;;;;;13.08;100.00;95541.81;5093197;28;20200;-61
2022/04/27 04:10:35;;;;;;;10.77;8.80;;;;;;;13.06;100.00;95541.44;5093388;28;20273;-61
2022/04/27 04:13:00;;;;;;;11.33;8.47;;;;;;;13.17;100.00;95542.84;5093397;28;20193;-61
2022/04/27 04:15:26;;;;;;;11.40;9.17;;;;;;;13.16;100.00;95548.72;5093284;28;20182;-60
2022/04/27 04:17:51;;;;;;;12.67;9.10;;;;;;;13.15;100.00;95547.94;5093089;28;20197;-58
2022/04/27 04:20:18;;;;;;;11.93;9.40;;;;;;;13.06;100.00;95550.44;5093078;28;20286;-63
2022/04/27 04:22:44;;;;;;;14.23;9.77;;;;;;;13.07;100.00;95552.00;5093155;28;20191;-63
2022/04/27 04:30:38;;;;;;;12.10;9.60;;;;;;;13.06;100.00;95553.19;5094366;28;20194;-63
2022/04/27 04:33:03;;;;;;;13.13;9.93;;;;;;;13.14;100.00;95557.38;5092846;28;20186;-64
2022/04/27 04:35:29;;;;;;;13.90;10.27;;;;;;;13.14;100.00;95564.81;5093188;28;20196;-58
2022/04/27 04:37:55;;;;;;;14.27;10.60;;;;;;;13.26;100.00;95575.22;5093063;28;20206;-63
2022/04/27 04:40:20;;;;;;;12.27;9.57;;;;;;;12.96;100.00;95580.72;5092880;28;20272;-62
2022/04/27 04:42:46;;;;;;;13.83;10.73;;;;;;;13.02;100.00;95574.41;5092751;28;20235;-63
2022/04/27 04:45:11;;;;;;;12.13;9.83;;;;;;;13.04;100.00;95579.47;5092949;28;20212;-65
2022/04/27 04:47:37;;;;;;;12.43;9.77;;;;;;;13.07;100.00;95575.88;5092553;28;20201;-64
2022/04/27 04:50:02;;;;;;;15.00;10.17;;;;;;;13.08;100.00;95575.47;5092660;28;20189;-64
2022/04/27 04:52:28;;;;;;;12.70;10.03;;;;;;;13.01;100.00;95586.53;5092574;28;20195;-64
2022/04/27 04:54:53;;;;;;;11.87;9.40;;;;;;;13.11;100.00;95587.56;5092655;28;20184;-60
2022/04/27 04:57:19;;;;;;;14.13;10.43;;;;;;;13.18;100.00;95590.22;5092868;28;20192;-56
2022/04/27 04:59:44;;;;;;;14.40;10.33;;;;;;;13.13;100.00;95593.44;5092554;28;20201;-56
2022/04/27 05:02:09;;;;;;;13.23;10.37;;;;;;;13.01;100.00;95585.78;5092649;28;20198;-56
2022/04/27 05:04:35;;;;;;;13.67;10.60;;;;;;;13.01;100.00;95596.75;5092407;28;20214;-56
2022/04/27 05:07:00;;;;;;;14.30;10.63;;;;;;;13.04;100.00;95595.94;5092600;28;20190;-57
2022/04/27 05:09:25;;;;;;;14.30;10.17;;;;;;;13.09;100.00;95587.22;5092748;28;20183;-56
2022/04/27 05:11:51;;;;;;;12.93;10.80;;;;;;;13.27;100.00;95587.72;5092186;28;20190;-61
2022/04/27 05:14:16;;;;;;;14.47;10.03;;;;;;;13.36;100.00;95593.47;5092216;28;20218;-56
2022/04/27 05:16:41;;;;;;;13.27;10.20;;;;;;;13.48;100.00;95595.63;5092222;28;20243;-56
2022/04/27 05:19:06;;;;;;;14.30;10.40;;;;;;;13.56;100.00;95594.31;5092323;28;20185;-56
2022/04/27 05:21:32;;;;;;;16.37;11.97;;;;;;;13.82;100.00;95607.22;5092457;28;20199;-55
2022/04/27 05:23:57;;;;;;;14.37;10.77;;;;;;;13.97;100.00;95608.50;5092064;28;20293;-57
2022/04/27 05:26:23;;;;;;;14.20;10.70;;;;;;;14.03;100.00;95612.34;5091734;28;20208;-56
2022/04/27 05:34:16;;;;;;;13.67;10.67;;;;;;;13.99;100.00;95611.59;5093282;28;20233;-53
2022/04/27 05:36:41;;;;;;;13.00;9.90;;;;;;;13.05;100.00;95620.16;5092260;28;20181;-54
2022/04/27 05:39:06;;;;;;;12.83;10.43;;;;;;;13.60;100.00;95617.00;5091910;28;20184;-54
2022/04/27 05:41:32;;;;;;;14.70;10.30;;;;;;;13.83;100.00;95619.72;5095310;28;20277;-54
2022/04/27 05:43:57;;;;;;;15.83;12.53;;;;;;;14.00;100.00;95628.84;5095542;28;20320;-51
2022/04/27 05:46:22;;;;;;;12.17;10.27;;;;;;;14.00;100.00;95620.63;5095251;28;20211;-54
2022/04/27 05:48:48;;;;;;;15.13;10.63;;;;;;;14.10;100.00;95627.91;5095162;28;20211;-62
2022/04/27 05:51:13;;;;;;;12.40;10.53;;;;;;;14.01;100.00;95633.94;5095191;28;20181;-58
2022/04/27 05:53:41;;;;;;;14.47;10.63;;;;;;;14.06;100.00;95638.94;5095199;28;20197;-58
2022/04/27 05:56:07;;;;;;;12.97;10.80;;;;;;;13.97;100.00;95637.94;5095988;28;20274;-57
2022/04/27 05:58:32;;;;;;;15.30;11.00;;;;;;;13.38;100.00;95654.19;5095401;28;20241;-57
2022/04/27 06:00:57;;;;;;;16.50;11.50;;;;;;;13.24;100.00;95652.44;5095216;28;20184;-57
2022/04/27 06:03:23;;;;;;;14.70;10.77;;;;;;;13.50;100.00;95644.59;5095498;28;20189;-58
2022/04/27 06:05:48;;;;;;;23.47;16.13;;;;;;;13.74;100.00;95649.69;5095204;28;20203;-58
2022/04/27 06:08:14;;;;;;;16.23;11.17;;;;;;;13.59;100.00;95651.13;5095710;28;20200;-57
2022/04/27 06:10:40;;;;;;;14.57;10.63;;;;;;;13.83;100.00;95652.69;5095568;28;20191;-58
2022/04/27 06:13:06;;;;;;;14.53;11.90;;;;;;;13.90;100.00;95655.31;5095056;28;20241;-58
2022/04/27 06:15:31;;;;;;;15.80;11.43;;;;;;;14.03;100.00;95663.72;5094799;28;20188;-57
2022/04/27 06:17:57;;;;;;;17.73;11.37;;;;;;;13.94;100.00;95669.75;5095103;28;20185;-58
2022/04/27 06:20:22;;;;;;;13.60;11.07;;;;;;;13.86;100.00;95656.56;5094870;28;20196;-57
2022/04/27 06:22:47;;;;;;;13.10;10.97;;;;;;;13.88;100.00;95665.91;5095499;28;20190;-57
2022/04/27 06:25:13;;;;;;;14.70;11.43;;;;;;;14.19;100.00;95675.59;5094660;28;20212;-62
2022/04/27 06:27:39;;;;;;;15.03;10.83;;;;;;;14.11;100.00;95674.19;5094724;28;20271;-57
2022/04/27 06:30:05;;;;;;;14.33;10.93;;;;;;;14.15;100.00;95674.88;5094702;28;20198;-57
2022/04/27 06:32:31;;;;;;;16.03;11.33;;;;;;;13.89;100.00;95685.91;5094607;28;20238;-57
2022/04/27 06:34:58;;;;;;;16.47;11.40;;;;;;;14.19;100.00;95689.34;5094441;28;20189;-57
2022/04/27 06:37:24;;;;;;;16.33;11.93;;;;;;;14.22;100.00;95696.78;5094009;28;20199;-58
2022/04/27 06:39:49;;;;;;;14.17;11.53;;;;;;;14.11;100.00;95689.88;5094876;28;20189;-58
2022/04/27 06:42:15;;;;;;;15.47;12.77;;;;;;;14.11;100.00;95696.16;5094719;28;20381;-57
2022/04/27 06:44:40;;;;;;;17.13;11.77;;;;;;;14.30;100.00;95698.19;5094507;28;20239;-63
2022/04/27 06:47:06;;;;;;;15.93;11.93;;;;;;;14.32;100.00;95704.06;5094986;28;20209;-62
2022/04/27 06:49:31;;;;;;;14.97;11.60;;;;;;;14.26;100.00;95702.19;5094353;28;20240;-61
2022/04/27 06:51:56;;;;;;;14.57;11.53;;;;;;;14.43;100.00;95704.66;5094620;28;20241;-63
2022/04/27 06:54:21;;;;;;;15.40;12.50;;;;;;;14.68;100.00;95701.44;5094918;28;20208;-62
2022/04/27 06:56:47;;;;;;;13.43;10.67;;;;;;;15.30;100.00;95702.09;5094232;28;20176;-62
2022/04/27 06:59:12;;;;;;;14.63;11.63;;;;;;;15.41;100.00;95704.66;5094348;28;20192;-62
2022/04/27 07:01:38;;;;;;;14.93;10.87;;;;;;;16.01;100.00;95710.34;5094198;28;20244;-57
2022/04/27 07:04:08;;;;;;;12.40;10.73;;;;;;;16.65;100.00;95697.72;5094216;28;20184;-63
2022/04/27 07:06:34;;;;;;;12.17;9.87;;;;;;;17.48;100.00;95696.56;5094537;28;20217;-62
2022/04/27 07:09:00;;;;;;;13.00;10.43;;;;;;;17.87;97.76;95704.41;5093939;28;20278;-62
2022/04/27 07:11:26;;;;;;;9.33;8.33;;;;;;;17.88;91.11;95712.28;5094117;28;20193;-62
2022/04/27 07:13:54;;;;;;;8.67;7.60;;;;;;;17.87;88.24;95702.44;5094126;28;20183;-62
2022/04/27 07:16:20;;;;;;;9.10;7.50;;;;;;;17.64;86.74;95713.03;5093865;28;20236;-63
2022/04/27 07:18:45;;;;;;;9.07;7.73;;;;;;;17.37;86.42;95710.66;5095193;28;20184;-64
2022/04/27 07:21:10;;;;;;;8.63;7.73;;;;;;;17.62;87.08;95716.25;5093978;28;20175;-65
2022/04/27 07:23:36;;;;;;;11.60;10.40;;;;;;;17.15;85.27;95728.28;5093855;28;20191;-56
2022/04/27 07:26:01;;;;;;;10.37;9.27;;;;;;;17.27;86.33;95727.53;5093508;28;20245;-56
2022/04/27 07:28:26;;;;;;;9.53;8.57;;;;;;;17.68;86.52;95724.75;5093784;28;20182;-54
2022/04/27 07:30:52;;;;;;;10.77;9.67;;;;;;;17.76;84.15;95726.09;5093951;28;20198;-55
2022/04/27 07:33:18;;;;;;;9.33;8.37;;;;;;;18.09;84.62;95730.97;5093671;28;20194;-56
2022/04/27 07:35:44;;;;;;;10.60;8.80;;;;;;;19.19;82.09;95731.56;5093866;28;20241;-56
2022/04/27 07:38:09;;;;;;;8.60;7.77;;;;;;;19.08;79.98;95731.19;5094318;28;20184;-58
2022/04/27 07:40:34;;;;;;;8.83;7.93;;;;;;;19.18;79.95;95735.56;5093836;28;20190;-57
2022/04/27 07:43:00;;;;;;;8.87;7.97;;;;;;;19.28;79.13;95748.28;5093643;28;20184;-57
2022/04/27 07:45:27;;;;;;;10.00;7.47;;;;;;;23.01;69.69;95739.19;5093913;28;20196;-57
2022/04/27 07:47:52;;;;;;;9.07;7.90;;;;;;;25.42;46.54;95743.66;5093537;28;20181;-54
2022/04/27 07:50:19;;;;;;;8.47;7.67;;;;;;;28.04;39.41;95740.31;5093565;28;20187;-55
2022/04/27 07:52:45;;;;;;;7.97;7.27;;;;;;;30.10;34.34;95744.91;5093602;28;20203;-54
2022/04/27 07:55:11;;;;;;;11.50;10.30;;;;;;;29.35;32.90;95745.56;5093973;28;20184;-54
2022/04/27 07:57:37;;;;;;;7.60;6.90;;;;;;;25.70;37.49;95756.69;5093725;28;20250;-59
2022/04/27 08:00:08;;;;;;;8.03;7.23;;;;;;;24.99;40.99;95762.19;5077255;28;20233;-64
2022/04/27 08:02:35;;;;;;;8.00;7.27;;;;;;;25.37;39.06;95756.31;5092524;28;20195;-63
2022/04/27 08:05:01;;;;;;;7.73;7.10;;;;;;;25.59;38.12;95767.75;5093262;28;20200;-64
2022/04/27 08:07:37;;;;;;;7.80;7.10;;;;;;;23.83;41.76;95763.09;5093661;28;20222;-63
2022/04/27 08:10:16;;;;;;;8.00;7.30;;;;;;;23.81;43.56;95778.75;5093706;28;20271;-63
2022/04/27 08:12:46;;;;;;;7.03;6.43;;;;;;;26.76;38.39;95771.16;5093426;28;20180;-63
2022/04/27 08:15:13;;;;;;;8.67;7.87;;;;;;;25.23;37.78;95776.72;5093813;28;20177;-63
2022/04/27 08:17:55;;;;;;;6.53;5.93;;;;;;;26.31;38.04;95762.88;5092965;28;20217;-64
2022/04/27 08:23:16;;;;;;;7.83;7.10;;;;;;;23.67;40.33;95771.19;5094522;28;20230;-64
2022/04/27 08:25:42;;;;;;;8.43;7.53;;;;;;;24.54;41.33;95759.97;5092682;28;20218;-64
2022/04/27 08:28:08;;;;;;;8.10;6.73;;;;;;;26.61;36.67;95759.34;5092955;28;20195;-64
2022/04/27 08:30:36;;;;;;;7.60;6.90;;;;;;;28.40;33.21;95760.28;5093114;28;20192;-65
2022/04/27 08:33:04;;;;;;;7.07;6.47;;;;;;;30.31;31.27;95757.34;5092883;28;20187;-62
2022/04/27 08:35:31;;;;;;;7.43;6.63;;;;;;;30.47;30.09;95771.31;5092742;28;20188;-62
2022/04/27 08:37:57;;;;;;;6.50;5.90;;;;;;;30.77;29.27;95765.72;5093367;28;20180;-63
2022/04/27 08:40:24;;;;;;;6.00;5.50;;;;;;;32.20;29.08;95764.00;5092472;28;20271;-63
2022/04/27 08:42:51;;;;;;;6.47;5.87;;;;;;;32.33;27.95;95766.16;5093097;28;20209;-62
2022/04/27 08:45:17;;;;;;;5.50;5.10;;;;;;;32.15;26.82;95764.81;5092579;28;20208;-62
2022/04/27 08:47:43;;;;;;;5.80;5.30;;;;;;;32.11;26.49;95761.53;5092796;28;20184;-62
2022/04/27 08:50:14;;;;;;;7.10;5.90;;;;;;;31.87;26.32;95764.47;5092467;28;20177;-62
2022/04/27 08:52:41;;;;;;;6.00;5.50;;;;;;;28.67;29.52;95779.19;5092648;28;20318;-63
2022/04/27 08:55:07;;;;;;;6.33;5.70;;;;;;;28.32;30.00;95773.31;5092814;28;20196;-55
2022/04/27 08:57:32;;;;;;;5.90;5.43;;;;;;;26.25;33.58;95776.84;5092466;28;20282;-54
2022/04/27 08:59:58;;;;;;;6.20;5.47;;;;;;;25.15;34.66;95781.97;5092954;28;20714;-56
2022/04/27 09:02:27;;;;;;;5.80;5.20;;;;;;;24.35;36.17;95786.59;5092757;28;20193;-55
2022/04/27 09:05:10;;;;;;;5.27;4.87;;;;;;;23.96;37.05;95785.19;5093109;28;20238;-52
2022/04/27 09:07:38;;;;;;;5.10;4.70;;;;;;;23.98;37.25;95785.47;5092307;28;20338;-54
2022/04/27 09:10:06;;;;;;;5.60;5.00;;;;;;;27.21;33.79;95777.78;5092661;28;20196;-54
2022/04/27 09:12:32;;;;;;;5.00;4.50;;;;;;;28.42;31.58;95783.78;5092339;28;20187;-57
2022/04/27 09:15:07;;;;;;;4.53;4.10;;;;;;;26.35;32.70;95791.44;5094665;28;20180;-58
2022/04/27 09:23:06;;;;;;;7.43;6.50;;;;;;;22.65;40.72;95792.31;5097215;28;20223;-60
2022/04/27 09:25:33;;;;;;;5.90;5.40;;;;;;;21.82;41.37;95799.38;5095928;28;20254;-58
2022/04/27 09:28:01;;;;;;;6.47;5.50;;;;;;;20.93;44.71;95800.09;5096131;28;20203;-56
2022/04/27 09:30:28;;;;;;;6.40;5.80;;;;;;;21.12;47.65;95808.00;5095753;28;20181;-53
2022/04/27 09:32:53;;;;;;;6.43;5.20;;;;;;;20.99;48.20;95796.28;5095512;28;20188;-52
2022/04/27 09:35:32;;;;;;;8.07;7.27;;;;;;;21.05;47.54;95802.75;5095696;28;20180;-56
2022/04/27 09:38:18;;;;;;;5.30;4.80;;;;;;;20.99;46.53;95806.59;5095539;28;20183;-54
2022/04/27 09:40:48;;;;;;;10.13;8.00;;;;;;;20.96;46.36;95797.19;5096310;28;20173;-53
2022/04/27 09:43:14;;;;;;;8.00;6.90;;;;;;;20.72;48.99;95801.72;5095270;28;20184;-51
2022/04/27 09:45:41;;;;;;;7.30;6.50;;;;;;;20.73;48.30;95797.75;5095067;28;20277;-58
2022/04/27 09:48:08;;;;;;;6.90;6.10;;;;;;;20.29;49.30;95795.56;5095309;28;20325;-58
2022/04/27 09:50:48;;;;;;;6.60;5.20;;;;;;;20.61;49.92;95793.06;5095349;28;20185;-58
2022/04/27 09:53:15;;;;;;;5.60;5.10;;;;;;;20.10;49.20;95794.72;5095312;28;20184;-58
2022/04/27 09:55:46;;;;;;;8.20;5.93;;;;;;;20.05;49.26;95809.16;5095101;28;20184;-58
2022/04/27 09:58:13;;;;;;;5.50;5.00;;;;;;;20.60;48.34;95808.19;5095192;28;20191;-58
2022/04/27 10:00:42;;;;;;;6.37;5.73;;;;;;;20.33;49.15;95801.75;5095452;28;20176;-58
2022/04/27 10:03:08;;;;;;;6.57;5.97;;;;;;;20.38;50.46;95810.25;5095576;28;20230;-58
2022/04/27 10:05:33;;;;;;;7.10;6.20;;;;;;;20.63;49.08;95804.50;5094871;28;20257;-62
2022/04/27 10:08:01;;;;;;;7.70;7.00;;;;;;;20.45;49.27;95804.44;5095258;28;20185;-59
2022/04/27 10:10:27;;;;;;;8.63;7.73;;;;;;;20.18;51.65;95807.06;5094986;28;20274;-58
2022/04/27 10:12:53;;;;;;;10.10;9.00;;;;;;;20.80;51.69;95825.19;5096050;28;20220;-58
2022/04/27 10:15:19;;;;;;;8.80;7.90;;;;;;;20.92;50.84;95809.66;5094950;28;20185;-58
2022/04/27 10:17:44;;;;;;;8.17;7.33;;;;;;;20.63;50.13;95810.03;5094859;28;20181;-58
2022/04/27 10:20:29;;;;;;;7.47;6.77;;;;;;;20.31;50.83;95816.09;5095232;28;20271;-59
2022/04/27 10:23:33;;;;;;;8.77;6.33;;;;;;;20.76;49.23;95816.22;5096180;28;20188;-60
2022/04/27 10:26:14;;;;;;;6.70;6.10;;;;;;;21.08;48.62;95818.50;5016337;28;20214;-61
2022/04/27 10:28:56;;;;;;;7.47;6.77;;;;;;;20.42;51.32;95821.97;5088324;28;20193;-62
2022/04/27 10:31:39;;;;;;;7.93;7.13;;;;;;;20.74;52.29;95831.81;5095224;28;20202;-61
2022/04/27 10:34:18;;;;;;;7.90;7.13;;;;;;;20.97;51.42;95823.72;5094800;28;20284;-62
2022/04/27 10:36:47;;;;;;;8.43;7.63;;;;;;;20.54;51.90;95820.34;5095143;28;20191;-60
2022/04/27 10:39:12;;;;;;;8.27;7.27;;;;;;;20.38;53.98;95820.56;5094876;28;20185;-60
2022/04/27 10:42:02;;;;;;;7.87;6.70;;;;;;;21.00;51.91;95822.81;5095434;28;20184;-54
2022/04/27 10:44:50;;;;;;;7.23;6.53;;;;;;;19.48;55.18;95826.31;5094837;28;20192;-56
2022/04/27 10:47:21;;;;;;;7.30;6.70;;;;;;;20.23;56.27;95825.13;5094499;28;20234;-57
2022/04/27 10:49:50;;;;;;;7.67;6.97;;;;;;;19.71;58.22;95828.66;5095148;28;20185;-57
2022/04/27 10:52:22;;;;;;;8.43;7.63;;;;;;;20.16;56.55;95820.63;5094608;28;20185;-56
2022/04/27 10:54:47;;;;;;;8.47;7.30;;;;;;;19.91;56.46;95826.31;5094472;28;20184;-57
2022/04/27 10:57:16;;;;;;;8.57;7.60;;;;;;;20.47;55.79;95824.16;5094534;28;20189;-57
2022/04/27 10:59:50;;;;;;;8.13;7.33;;;;;;;20.62;54.62;95825.16;5094097;28;20193;-60
2022/04/27 11:02:41;;;;;;;8.73;7.83;;;;;;;20.56;55.04;95826.97;5094477;28;20187;-53
2022/04/27 11:05:10;;;;;;;7.30;6.60;;;;;;;20.69;53.00;95830.41;5090802;28;20294;-61
2022/04/27 11:07:41;;;;;;;9.27;8.37;;;;;;;20.67;54.96;95826.53;5094260;28;20204;-60
2022/04/27 11:10:17;;;;;;;8.50;7.60;;;;;;;20.68;55.44;95834.41;5094574;28;20188;-60
2022/04/27 11:12:56;;;;;;;8.83;8.00;;;;;;;20.61;53.23;95845.78;5094047;28;20211;-60
2022/04/27 11:15:26;;;;;;;7.70;7.00;;;;;;;20.78;51.87;95849.88;5094925;28;20173;-60
2022/04/27 11:17:56;;;;;;;8.43;7.60;;;;;;;19.99;56.38;95849.78;5094025;28;20220;-58
2022/04/27 11:20:23;;;;;;;8.10;7.30;;;;;;;19.72;58.09;95841.28;5094717;28;20216;-57
2022/04/27 11:22:49;;;;;;;9.47;7.87;;;;;;;20.10;57.26;95852.94;5093943;28;20206;-57
2022/04/27 11:25:23;;;;;;;9.47;7.80;;;;;;;20.10;58.37;95846.63;5093644;28;20216;-57
2022/04/27 11:27:49;;;;;;;10.13;8.93;;;;;;;19.62;60.53;95853.53;5094289;28;20192;-57
2022/04/27 11:30:14;;;;;;;10.40;9.27;;;;;;;19.21;59.33;95848.22;5094159;28;20199;-57
2022/04/27 11:32:43;;;;;;;8.63;7.73;;;;;;;19.38;61.47;95855.94;5093888;28;20286;-57
2022/04/27 11:35:09;;;;;;;8.43;6.97;;;;;;;19.72;59.57;95857.91;5093799;28;20282;-56
2022/04/27 11:37:37;;;;;;;7.63;6.53;;;;;;;19.86;56.71;95856.63;5093702;28;20224;-56
2022/04/27 11:40:13;;;;;;;9.47;6.23;;;;;;;20.22;54.72;95865.97;5094339;28;20269;-59
2022/04/27 11:42:43;;;;;;;6.93;6.20;;;;;;;20.39;54.32;95861.75;5094003;28;20184;-58
2022/04/27 11:45:08;;;;;;;8.07;7.27;;;;;;;20.36;57.29;95859.13;5094131;28;20248;-59
2022/04/27 11:47:34;;;;;;;8.57;7.63;;;;;;;20.11;58.18;95867.59;5094149;28;20294;-58